Latest Weather Observations for Hobart

IDT60901

Issued at 4:35 pm EST Sunday 20 April 2014 (issued every 10 minutes, with the page automatically refreshed every 10 minutes)

About weather observations | Map of Hobart area stations | Latest observations for Hobart area | Other Formats
Station Details ID: 094029 Name: HOBART (ELLERSLIE ROAD) Lat: -42.89 Lon: 147.33 Height: 50.5 m
Data from the previous 72 hours. | See also: Recent months at Hobart
Date/Time
EST
Tmp

°C
App
Tmp
°C
Dew
Point
°C
Rel
Hum
%
Delta-T

°C
Wind Press
QNH
hPa
Press
MSL
hPa
Rain
since
9 am
mm
Dir
 
Spd
km/h
Gust
km/h
Spd
kts
Gust
kts
20/04:30pm 14.4 12.4 10.0 75 2.3 S 11 20 6 11 1008.9 - 0.0
20/04:00pm 14.9 12.8 9.7 71 2.7 SSW 11 17 6 9 1008.5 - 0.0
20/03:30pm 16.3 13.3 9.2 63 3.7 W 15 24 8 13 1008.2 - 0.0
20/03:07pm 17.0 10.6 7.0 51 5.0 NW 30 54 16 29 1007.6 - 0.0
20/03:00pm 17.0 12.2 7.5 53 4.8 NW 22 41 12 22 1007.4 1007.5 0.0
20/02:30pm 17.9 13.7 5.9 45 5.9 NW 17 30 9 16 1007.0 - 0.0
20/02:00pm 18.4 13.4 6.4 45 6.0 NNW 22 35 12 19 1006.8 - 0.0
20/01:30pm 17.0 11.8 5.7 47 5.5 NNW 22 37 12 20 1006.7 - 0.0
20/01:00pm 17.1 11.5 5.3 45 5.7 NNW 24 43 13 23 1007.1 - 0.0
20/12:30pm 16.8 11.5 5.1 46 5.6 NNW 22 33 12 18 1007.5 - 0.0
20/12:00pm 14.9 10.7 5.5 53 4.5 N 17 28 9 15 1008.2 1008.3 0.0
20/11:30am 14.3 11.4 4.9 53 4.4 NNE 9 17 5 9 1008.9 - 0.0
20/11:00am 13.3 10.0 4.6 55 4.0 N 11 17 6 9 1009.2 - 0.0
20/10:30am 13.7 9.9 4.1 52 4.4 N 13 19 7 10 1009.5 - 0.0
20/10:00am 13.4 8.9 4.2 53 4.2 N 17 24 9 13 1010.0 - 0.0
20/09:30am 11.9 7.2 3.3 55 3.8 N 17 22 9 12 1010.3 - 0.0
20/09:00am 11.6 5.9 2.9 55 3.8 NNW 22 28 12 15 1010.4 1010.5 0.0
20/08:30am 10.3 5.6 3.2 61 3.1 N 17 20 9 11 1010.8 - 0.0
20/08:00am 9.5 3.9 3.3 65 2.7 NNW 22 28 12 15 1010.7 - 0.0
20/07:30am 8.6 3.4 3.8 72 2.1 NNW 20 28 11 15 1010.8 - 0.0
20/07:00am 8.3 3.0 3.2 70 2.2 NNW 20 26 11 14 1010.7 - 0.0
20/06:30am 8.8 3.0 2.4 64 2.7 N 22 32 12 17 1010.6 - 0.0
20/06:00am 8.8 2.6 2.1 63 2.8 N 24 32 13 17 1010.5 1010.6 0.0
20/05:30am 8.8 3.0 2.1 63 2.8 N 22 28 12 15 1010.6 - 0.0
20/05:00am 8.9 3.0 2.0 62 2.9 N 22 30 12 16 1010.8 - 0.0
20/04:30am 9.3 3.4 1.9 60 3.1 N 22 30 12 16 1011.0 - 0.0
20/04:00am 9.5 3.3 1.9 59 3.2 NNW 24 32 13 17 1011.2 - 0.0
20/03:30am 9.2 5.2 2.6 63 2.8 N 13 19 7 10 1011.4 - 0.0
20/03:00am 9.8 5.7 2.3 59 3.2 N 13 17 7 9 1011.9 1012.0 0.0
20/02:30am 10.1 5.2 1.8 56 3.5 NNW 17 24 9 13 1012.4 - 0.0
20/02:00am 10.0 5.1 1.9 57 3.4 NNW 17 20 9 11 1012.7 - 0.0
20/01:30am 9.9 5.4 2.1 58 3.3 NNW 15 20 8 11 1013.1 - 0.0
20/01:00am 10.0 4.1 1.9 57 3.4 NNW 22 30 12 16 1013.2 - 0.0
20/12:30am 9.8 4.7 3.1 63 2.9 NW 19 26 10 14 1013.5 - 0.0
20/12:00am 9.6 5.4 3.6 66 2.6 NNW 15 20 8 11 1013.6 1013.6 0.0
 
Date/Time
EST
Tmp

°C
App
Tmp
°C
Dew
Point
°C
Rel
Hum
%
Delta-T

°C
Wind Press
QNH
hPa
Press
MSL
hPa
Rain
since
9 am
mm
Dir
 
Spd
km/h
Gust
km/h
Spd
kts
Gust
kts
19/11:30pm 10.0 5.7 3.3 63 2.9 NW 15 20 8 11 1013.8 - 0.0
19/11:00pm 10.3 5.9 2.9 60 3.2 NW 15 20 8 11 1014.2 - 0.0
19/10:30pm 10.2 5.8 2.5 59 3.3 NW 15 24 8 13 1014.5 - 0.0
19/10:00pm 10.3 5.7 3.7 63 2.9 NW 17 24 9 13 1015.0 - 0.0
19/09:30pm 10.1 5.8 3.2 62 3.0 NW 15 22 8 12 1015.0 - 0.0
19/09:00pm 9.0 6.1 2.6 64 2.7 NW 7 13 4 7 1015.1 1015.2 0.0
19/08:30pm 9.6 6.3 2.3 60 3.1 NNW 9 13 5 7 1015.1 - 0.0
19/08:00pm 10.6 7.6 2.1 55 3.6 NNW 7 11 4 6 1015.0 - 0.0
19/07:30pm 11.1 8.1 2.2 54 3.8 W 7 13 4 7 1015.0 - 0.0
19/07:00pm 11.3 7.7 3.1 57 3.6 W 11 19 6 10 1014.9 - 0.0
19/06:30pm 11.3 7.5 3.9 60 3.3 WSW 13 17 7 9 1014.8 - 0.0
19/06:00pm 12.0 8.4 3.2 55 3.9 SW 11 17 6 9 1014.6 1014.7 0.0
19/05:30pm 12.1 8.3 3.9 57 3.7 WSW 13 17 7 9 1014.5 - 0.0
19/05:00pm 11.9 7.5 4.9 62 3.2 SW 17 24 9 13 1014.4 - 0.0
19/04:30pm 12.4 7.6 4.8 60 3.5 SSW 19 30 10 16 1014.5 - 0.0
19/04:00pm 12.7 8.6 4.4 57 3.8 SSW 15 20 8 11 1014.5 - 0.0
19/03:30pm 13.4 8.7 3.1 49 4.6 SW 17 26 9 14 1014.5 - 0.0
19/03:00pm 13.6 10.8 3.4 50 4.6 SW 7 13 4 7 1014.5 1014.6 0.0
19/02:30pm 13.4 10.7 2.8 48 4.7 SSW 6 11 3 6 1014.5 - 0.0
19/02:00pm 14.2 9.5 3.1 47 5.0 SW 17 28 9 15 1014.5 - 0.0
19/01:30pm 13.1 7.8 3.2 51 4.4 SW 20 32 11 17 1014.6 - 0.0
19/01:00pm 13.0 7.3 2.8 50 4.5 S 22 32 12 17 1014.8 - 0.0
19/12:30pm 13.5 9.8 2.6 47 4.8 SSW 11 30 6 16 1015.2 - 0.0
19/12:00pm 12.7 7.2 1.8 47 4.7 WSW 20 39 11 21 1015.7 1015.8 0.0
19/11:30am 12.8 7.4 2.5 49 4.5 WSW 20 37 11 20 1015.9 - 0.0
19/11:00am 14.8 9.5 1.8 41 5.7 WSW 19 28 10 15 1016.1 - 0.0
19/10:30am 13.1 7.8 2.1 47 4.8 SSW 19 30 10 16 1015.9 - 0.0
19/10:00am 13.0 7.8 2.2 48 4.7 SSW 19 28 10 15 1016.0 - 0.0
19/09:30am 13.1 9.0 2.1 47 4.8 WSW 13 28 7 15 1016.0 - 0.0
19/09:00am 12.1 6.5 1.5 48 4.5 WSW 20 32 11 17 1015.8 1015.9 0.0
19/08:30am 11.2 5.3 1.5 51 4.1 WSW 22 35 12 19 1015.6 - 0.0
19/08:00am 10.4 5.9 2.2 57 3.5 WSW 15 22 8 12 1015.4 - 0.0
19/07:30am 10.0 4.9 2.8 61 3.1 SW 19 30 10 16 1015.3 - 0.0
19/07:00am 9.4 4.3 3.1 65 2.7 SW 19 30 10 16 1014.9 - 0.0
19/06:30am 9.1 6.5 3.0 65 2.6 SSW 6 7 3 4 1014.8 - 0.0
19/06:00am 9.7 5.3 2.7 61 3.0 WSW 15 24 8 13 1014.5 1014.6 0.0
19/05:30am 9.8 5.8 3.1 63 2.9 SW 13 28 7 15 1014.2 - 0.0
19/05:00am 9.9 5.5 2.9 62 3.0 SW 15 26 8 14 1014.0 - 0.0
19/04:30am 9.7 6.0 2.4 60 3.1 WNW 11 20 6 11 1013.9 - 0.0
19/04:00am 9.6 6.0 2.8 62 2.9 WSW 11 20 6 11 1013.9 - 0.0
19/03:30am 9.9 6.6 2.4 59 3.2 WNW 9 17 5 9 1013.8 - 0.0
19/03:00am 10.0 6.7 2.2 58 3.3 W 9 17 5 9 1013.5 1013.5 0.0
19/02:30am 10.1 6.0 2.4 59 3.3 WNW 13 20 7 11 1013.6 - 0.0
19/02:00am 9.8 6.3 3.4 64 2.8 WSW 11 19 6 10 1013.7 - 0.0
19/01:30am 10.2 6.6 2.8 60 3.2 W 11 20 6 11 1013.6 - 0.0
19/01:00am 10.1 7.4 2.9 61 3.1 WNW 6 9 3 5 1013.5 - 0.0
19/12:30am 10.1 6.1 2.6 59 3.2 WSW 13 24 7 13 1013.6 - 0.0
19/12:00am 9.9 7.6 2.9 62 3.0 WSW 4 9 2 5 1013.6 1013.6 0.0
 
Date/Time
EST
Tmp

°C
App
Tmp
°C
Dew
Point
°C
Rel
Hum
%
Delta-T

°C
Wind Press
QNH
hPa
Press
MSL
hPa
Rain
since
9 am
mm
Dir
 
Spd
km/h
Gust
km/h
Spd
kts
Gust
kts
18/11:30pm 10.4 6.4 3.0 60 3.2 W 13 22 7 12 1013.5 - 0.0
18/11:00pm 10.5 7.8 2.9 59 3.3 W 6 19 3 10 1013.4 - 0.0
18/10:30pm 10.8 8.1 3.5 60 3.2 NNW 7 17 4 9 1013.2 - 0.0
18/10:00pm 11.1 7.2 3.4 59 3.4 WNW 13 30 7 16 1013.4 - 0.0
18/09:30pm 10.8 6.2 3.5 60 3.2 SW 17 28 9 15 1012.9 - 0.0
18/09:00pm 11.5 8.7 3.1 56 3.7 WSW 7 15 4 8 1012.6 1012.7 0.0
18/08:30pm 11.8 7.9 3.2 55 3.8 NW 13 17 7 9 1012.3 - 0.0
18/08:00pm 11.5 8.8 3.6 58 3.5 NW 7 20 4 11 1012.0 - 0.0
18/07:30pm 11.7 9.3 4.2 60 3.4 S 6 11 3 6 1011.7 - 0.0
18/07:00pm 11.8 8.7 3.7 57 3.6 WSW 9 20 5 11 1011.6 - 0.0
18/06:30pm 11.6 8.5 3.5 57 3.6 SW 9 17 5 9 1011.3 - 0.0
18/06:00pm 12.1 6.8 2.8 53 4.1 W 20 30 11 16 1010.8 1010.9 0.0
18/05:30pm 12.0 7.3 3.2 55 3.9 WSW 17 30 9 16 1010.5 - 0.0
18/05:00pm 12.2 6.6 3.2 54 4.0 WSW 22 35 12 19 1010.1 - 0.0
18/04:30pm 12.8 8.1 3.4 53 4.2 WSW 17 28 9 15 1009.8 - 0.0
18/04:00pm 13.6 7.6 3.1 49 4.7 WSW 24 44 13 24 1009.2 - 0.0
18/03:30pm 13.9 9.8 4.4 52 4.4 SSW 15 30 8 16 1008.5 - 0.0
18/03:00pm 13.9 8.9 4.4 52 4.4 SW 20 32 11 17 1008.3 1008.4 0.0
18/02:30pm 14.2 9.0 3.4 48 4.9 WSW 20 37 11 20 1007.8 - 0.0
18/02:00pm 13.9 10.4 3.3 49 4.8 W 11 26 6 14 1007.9 - 0.0
18/01:30pm 13.6 9.0 3.7 51 4.5 WSW 17 35 9 19 1008.0 - 0.0
18/01:00pm 13.6 8.5 4.0 52 4.4 WSW 20 30 11 16 1008.0 - 0.0
18/12:30pm 13.5 9.5 4.7 55 4.1 NW 15 28 8 15 1008.1 - 0.0
18/12:00pm 13.5 9.1 4.9 56 4.0 N 17 39 9 21 1008.1 1008.2 0.0
18/11:30am 13.5 8.3 5.4 58 3.8 N 22 30 12 16 1007.6 - 0.0
18/11:00am 14.0 8.5 4.2 51 4.5 NE 22 37 12 20 1008.1 - 0.0
18/10:30am 13.6 6.4 4.8 55 4.1 SW 32 52 17 28 1008.2 - 0.0
18/10:14am 13.7 6.5 7.6 66 3.0 SW 35 54 19 29 1008.2 - 0.0
18/10:00am 15.6 11.2 9.0 65 3.4 NW 22 37 12 20 1007.4 - 0.0
18/09:30am 16.2 14.5 8.4 60 4.0 NNW 7 9 4 5 1006.5 - 0.0
18/09:00am 14.1 12.5 8.1 67 3.0 ENE 6 15 3 8 1007.0 1007.1 0.0
18/08:30am 12.7 10.6 8.1 73 2.3 NNW 9 15 5 8 1007.8 - 0.0
18/08:00am 11.0 9.1 7.7 80 1.6 SW 7 13 4 7 1008.0 - 0.0
18/07:30am 10.5 8.9 7.8 83 1.3 N 6 11 3 6 1008.3 - 0.0
18/07:00am 9.7 7.7 7.2 84 1.2 W 7 11 4 6 1008.6 - 0.0
18/06:30am 9.9 8.2 7.4 84 1.2 W 6 9 3 5 1008.8 - 0.0
18/06:00am 10.1 8.4 7.6 84 1.2 WNW 6 11 3 6 1009.2 1009.3 0.0
18/05:30am 10.4 8.7 7.7 83 1.3 NW 6 9 3 5 1009.6 - 0.0
18/05:00am 10.7 9.0 7.6 81 1.5 NW 6 9 3 5 1010.1 - 0.0
18/04:30am 10.5 7.9 7.6 82 1.4 W 11 15 6 8 1010.5 - 0.0
18/04:00am 10.3 9.0 7.6 83 1.3 WSW 4 9 2 5 1010.9 - 0.0
18/03:30am 10.6 8.7 7.5 81 1.5 W 7 11 4 6 1011.1 - 0.0
18/03:00am 10.7 9.7 7.4 80 1.6 NW 2 6 1 3 1011.6 1011.7 0.0
18/02:30am 11.2 8.9 7.5 78 1.8 WSW 9 13 5 7 1012.1 - 0.0
18/02:00am 12.3 10.0 7.4 72 2.4 WNW 9 11 5 6 1012.4 - 0.0
18/01:30am 12.4 9.2 7.0 69 2.6 NNW 13 17 7 9 1013.0 - 0.0
18/01:00am 12.4 9.2 6.8 68 2.7 NW 13 17 7 9 1013.4 - 0.0
18/12:30am 12.3 10.4 7.4 72 2.4 NNW 7 13 4 7 1013.9 - 0.0
18/12:00am 12.2 10.3 7.7 74 2.2 NW 7 9 4 5 1014.2 1014.2 0.0
 
Date/Time
EST
Tmp

°C
App
Tmp
°C
Dew
Point
°C
Rel
Hum
%
Delta-T

°C
Wind Press
QNH
hPa
Press
MSL
hPa
Rain
since
9 am
mm
Dir
 
Spd
km/h
Gust
km/h
Spd
kts
Gust
kts
17/11:30pm 12.7 10.0 7.4 70 2.6 NW 11 15 6 8 1014.5 - 0.0
17/11:00pm 13.4 10.7 7.2 66 3.0 NW 11 15 6 8 1014.9 - 0.0
17/10:30pm 13.8 10.6 7.0 63 3.3 NNW 13 17 7 9 1015.4 - 0.0
17/10:00pm 13.6 10.6 7.5 66 3.0 NNW 13 15 7 8 1015.7 - 0.0
17/09:30pm 13.1 10.5 7.8 70 2.6 NW 11 17 6 9 1016.0 - 0.0
17/09:00pm 13.3 10.8 8.1 71 2.6 WNW 11 13 6 7 1016.1 1016.2 0.0
17/08:30pm 13.7 11.6 8.3 70 2.7 WNW 9 11 5 6 1016.2 - 0.0
17/08:00pm 14.0 11.9 8.4 69 2.8 W 9 11 5 6 1016.3 - 0.0
17/07:30pm 15.2 14.4 8.3 63 3.5 W 2 7 1 4 1016.2 - 0.0
17/07:00pm 15.9 15.2 8.4 61 3.8 WNW 2 7 1 4 1016.2 - 0.0
17/06:30pm 16.4 15.0 8.8 60 3.9 WNW 6 7 3 4 1016.2 - 0.0
17/06:00pm 17.0 15.6 8.9 59 4.2 WNW 6 9 3 5 1016.1 1016.2 0.0
17/05:30pm 18.8 15.5 6.6 45 6.1 N 13 20 7 11 1016.0 - 0.0
17/05:00pm 19.2 15.3 6.9 44 6.2 N 17 22 9 12 1015.8 - 0.0

Latest Capital City Observations: Canberra | Sydney | Melbourne | Brisbane | Adelaide | Perth | Hobart | Darwin

Other Formats:

Comma delimited format used in spreadsheet applications
http://www.bom.gov.au/fwo/IDT60901/IDT60901.94970.axf

JavaScript Object Notation format (JSON) in row-major order
http://www.bom.gov.au/fwo/IDT60901/IDT60901.94970.json